Flight Track Log - Related Links

Times and Time Zones

All times are in EDT time to prevent confusion due to time zone crossing. See the UAL3756 flight status page for this flight to view local times or setup timezone preferences in your user account.

Time Position Orientation Groundspeed Altitude Reporting Facility
EDT Latitude Longitude Course Direction KTS MPH feet Rate Location/Type
Sat 11:56:57 AM 25.7847 -80.3181 286° West 195 224 800  Level Miami Center
Sat 11:57:41 AM 25.7961 -80.3622 286° West 203 234 2,000 1,433 Climbing Miami Center
Sat 11:58:04 AM 25.8100 -80.3878 301° West 230 265 2,400 1,952 Climbing Miami Center
Sat 11:59:04 AM 25.8231 -80.4575 282° West 243 280 4,700 2,350 Climbing Miami Center
Sat 12:00:04 PM 25.8822 -80.5078 323° Northwest 243 280 7,100 2,450 Climbing Miami Center
Sat 12:01:04 PM 25.9544 -80.5517 331° Northwest 260 299 9,600 2,400 Climbing Miami Center
Sat 12:02:04 PM 26.0242 -80.5953 331° Northwest 281 323 11,900 2,250 Climbing Miami Center
Sat 12:03:04 PM 26.0961 -80.6439 329° Northwest 291 335 14,100 2,000 Climbing Miami Center
Sat 12:04:04 PM 26.1614 -80.7083 318° Northwest 301 346 15,900 1,650 Climbing Miami Center
Sat 12:05:04 PM 26.2264 -80.7775 316° Northwest 315 362 17,400 1,800 Climbing Miami Center
Sat 12:06:04 PM 26.2975 -80.8447 320° Northwest 327 376 19,500 1,650 Climbing Miami Center
Sat 12:07:04 PM 26.3797 -80.8986 330° Northwest 333 383 20,700 1,050 Climbing Miami Center
Sat 12:08:04 PM 26.4678 -80.9572 329° Northwest 355 409 21,600 950 Climbing Miami Center
Sat 12:09:04 PM 26.5600 -81.0186 329° Northwest 376 433 22,600 1,000 Climbing Miami Center
Sat 12:10:04 PM 26.6542 -81.0847 328° Northwest 392 451 23,600 1,050 Climbing Miami Center
Sat 12:11:04 PM 26.7442 -81.1461 329° Northwest 408 470 24,700 1,150 Climbing Miami Center
Sat 12:12:04 PM 26.8444 -81.2172 328° Northwest 413 475 25,900 1,200 Climbing Miami Center
Sat 12:13:04 PM 26.9428 -81.2814 330° Northwest 418 481 27,100 950 Climbing Miami Center
Sat 12:14:04 PM 27.0428 -81.3528 328° Northwest 418 481 27,800 800 Climbing Miami Center
Sat 12:15:04 PM 27.1531 -81.4294 328° Northwest 423 487 28,700 850 Climbing Miami Center
Sat 12:16:04 PM 27.2553 -81.5011 328° Northwest 428 493 29,500 900 Climbing Miami Center
Sat 12:17:04 PM 27.3511 -81.5681 328° Northwest 433 498 30,500 950 Climbing Miami Center
Sat 12:18:04 PM 27.4656 -81.6453 329° Northwest 433 498 31,400 850 Climbing Miami Center
Sat 12:19:04 PM 27.5694 -81.7200 327° Northwest 438 504 32,200 950 Climbing Miami Center
Sat 12:20:04 PM 27.6714 -81.7922 328° Northwest 438 504 33,300 551 Climbing Miami Center
Sat 12:22:20 PM 27.9044 -81.9533 329° Northwest 431 496 34,000 214 Climbing Jacksonville Center
Sat 12:23:20 PM 28.0072 -82.0253 328° Northwest 436 502 34,000  Level Jacksonville Center
Sat 12:24:20 PM 28.1142 -82.0947 330° Northwest 441 507 34,000  Level Jacksonville Center
Sat 12:25:20 PM 28.2189 -82.1600 331° Northwest 436 502 34,000  Level Jacksonville Center
Sat 12:26:20 PM 28.3256 -82.2275 331° Northwest 436 502 34,000  Level Jacksonville Center
Sat 12:27:20 PM 28.4303 -82.2953 330° Northwest 436 502 34,000  Level Jacksonville Center
Sat 12:28:20 PM 28.5350 -82.3656 329° Northwest 431 496 34,000  Level Jacksonville Center
Sat 12:29:20 PM 28.6417 -82.4314 332° Northwest 431 496 34,000  Level Jacksonville Center
Sat 12:30:20 PM 28.7317 -82.4900 330° Northwest 422 486 34,000  Level Jacksonville Center
Sat 12:31:20 PM 28.8381 -82.5583 331° Northwest 422 486 34,000  Level Jacksonville Center
Sat 12:32:20 PM 28.9447 -82.6244 332° Northwest 427 491 34,000  Level Jacksonville Center
Sat 12:33:20 PM 29.0514 -82.6931 331° Northwest 427 491 34,000  Level Jacksonville Center
Sat 12:34:20 PM 29.1619 -82.7642 331° Northwest 438 504 34,000  Level Jacksonville Center
Sat 12:35:20 PM 29.2706 -82.8356 330° Northwest 443 510 34,000  Level Jacksonville Center
Sat 12:36:20 PM 29.3833 -82.9069 331° Northwest 448 516 34,000  Level Jacksonville Center
Sat 12:37:20 PM 29.4939 -82.9856 328° Northwest 455 524 34,000  Level Jacksonville Center
Sat 12:38:20 PM 29.6089 -83.0575 331° Northwest 465 535 34,000  Level Jacksonville Center
Sat 12:39:20 PM 29.7403 -83.1222 337° Northwest 459 528 34,000  Level Jacksonville Center
Sat 12:40:21 PM 29.8528 -83.1681 341° North 472 543 34,000  Level Jacksonville Center
Sat 12:41:20 PM 29.9758 -83.2258 338° Northwest 472 543 34,000  Level Jacksonville Center
Sat 12:42:20 PM 30.1114 -83.2864 339° North 472 543 34,000  Level Jacksonville Center
Sat 12:43:20 PM 30.2344 -83.3422 339° North 472 543 34,000  Level Jacksonville Center
Sat 12:44:20 PM 30.3575 -83.4006 338° Northwest 472 543 34,000  Level Jacksonville Center
Sat 12:45:20 PM 30.4803 -83.4589 338° Northwest 472 543 34,000  Level Jacksonville Center
Sat 12:46:20 PM 30.6053 -83.5178 338° Northwest 472 543 34,000  Level Jacksonville Center
Sat 12:47:20 PM 30.7261 -83.5742 338° Northwest 472 543 34,000  Level Jacksonville Center
Sat 12:48:20 PM 30.8469 -83.6356 336° Northwest 472 543 34,000  Level Jacksonville Center
Sat 12:49:20 PM 30.9717 -83.6944 338° Northwest 472 543 34,000  Level Jacksonville Center
Sat 12:50:20 PM 31.0967 -83.7514 339° North 472 543 34,000  Level Jacksonville Center
Sat 12:51:20 PM 31.2194 -83.8133 337° Northwest 472 543 34,000  Level Jacksonville Center
Sat 12:53:41 PM 31.5003 -83.9489 338° Northwest 493 567 34,000  Level Atlanta Center
Sat 12:54:41 PM 31.6361 -83.9875 346° North 493 567 34,000  Level Atlanta Center
Sat 12:55:41 PM 31.7906 -84.0217 349° North 499 574 34,000  Level Atlanta Center
Sat 12:56:41 PM 31.9303 -84.0511 350° North 505 581 34,000  Level Atlanta Center
Sat 12:57:41 PM 32.0681 -84.0806 350° North 505 581 34,000  Level Atlanta Center
Sat 12:58:41 PM 32.2100 -84.1125 349° North 505 581 34,000  Level Atlanta Center
Sat 12:59:41 PM 32.3478 -84.1444 349° North 505 581 34,000  Level Atlanta Center
Sat 01:00:41 PM 32.4875 -84.1767 349° North 505 581 34,000  Level Atlanta Center
Sat 01:01:41 PM 32.6272 -84.2067 350° North 505 581 34,000  Level Atlanta Center
Sat 01:02:41 PM 32.7672 -84.2389 349° North 505 581 34,000  Level Atlanta Center
Sat 01:03:41 PM 32.9047 -84.2739 348° North 505 581 34,000  Level Atlanta Center
Sat 01:04:41 PM 33.0406 -84.3014 350° North 505 581 34,000  Level Atlanta Center
Sat 01:05:41 PM 33.1594 -84.3292 349° North 500 575 34,000  Level Atlanta Center
Sat 01:06:41 PM 33.2950 -84.3594 349° North 495 570 34,000  Level Atlanta Center
Sat 01:07:41 PM 33.4264 -84.3897 349° North 484 557 34,000  Level Atlanta Center
Sat 01:08:41 PM 33.5600 -84.4203 349° North 484 557 34,000  Level Atlanta Center
Sat 01:09:41 PM 33.6997 -84.4458 351° North 487 560 34,000  Level Atlanta Center
Sat 01:10:41 PM 33.8228 -84.4614 354° North 487 560 34,000  Level Atlanta Center
Sat 01:11:41 PM 33.9583 -84.4772 354° North 482 555 34,000  Level Atlanta Center
Sat 01:12:41 PM 34.0919 -84.4928 354° North 480 552 34,000  Level Atlanta Center
Sat 01:13:41 PM 34.2317 -84.5086 355° North 495 570 34,000  Level Atlanta Center
Sat 01:14:41 PM 34.3653 -84.5244 354° North 484 557 34,000  Level Atlanta Center
Sat 01:15:41 PM 34.4986 -84.5403 354° North 473 544 34,000  Level Atlanta Center
Sat 01:16:41 PM 34.6322 -84.5564 354° North 473 544 34,000  Level Atlanta Center
Sat 01:17:41 PM 34.7697 -84.5772 353° North 467 537 34,000  Level Atlanta Center
Sat 01:18:41 PM 34.8992 -84.5933 354° North 467 537 34,000  Level Atlanta Center
Sat 01:19:41 PM 35.0306 -84.6069 355° North 461 531 34,000  Level Atlanta Center
Sat 01:20:41 PM 35.1597 -84.6256 353° North 466 536 34,000  Level Atlanta Center
Sat 01:21:41 PM 35.2892 -84.6392 355° North 466 536 34,000  Level Atlanta Center
Sat 01:22:41 PM 35.4183 -84.6556 354° North 466 536 34,000  Level Atlanta Center
Sat 01:23:41 PM 35.5478 -84.6717 354° North 466 536 34,000  Level Atlanta Center
Sat 01:24:41 PM 35.6789 -84.6881 354° North 466 536 34,000  Level Atlanta Center
Sat 01:26:20 PM 35.8797 -84.7117 355° North 473 544 34,000  Level Indianapolis Center
Sat 01:27:21 PM 36.0333 -84.7311 354° North 472 543 34,000  Level Indianapolis Center
Sat 01:28:23 PM 36.1619 -84.7475 354° North 469 540 34,000  Level Indianapolis Center
Sat 01:29:24 PM 36.2881 -84.7711 351° North 461 531 34,000  Level Indianapolis Center
Sat 01:30:26 PM 36.4103 -84.8083 346° North 452 520 34,000  Level Indianapolis Center
Sat 01:31:27 PM 36.5328 -84.8425 347° North 453 521 34,000  Level Indianapolis Center
Sat 01:32:28 PM 36.6589 -84.8536 356° North 454 522 34,000  Level Indianapolis Center
Sat 01:33:30 PM 36.7894 -84.8461 North 466 536 34,000  Level Indianapolis Center
Sat 01:34:31 PM 36.9186 -84.8356 North 466 536 34,000  Level Indianapolis Center
Sat 01:35:32 PM 37.0697 -84.8253 North 464 534 34,000  Level Indianapolis Center
Sat 01:36:34 PM 37.1994 -84.8142 North 464 534 34,000  Level Indianapolis Center
Sat 01:37:35 PM 37.3286 -84.8056 North 463 533 34,000  Level Indianapolis Center
Sat 01:38:37 PM 37.4578 -84.7947 North 462 532 34,000  Level Indianapolis Center
Sat 01:39:38 PM 37.5825 -84.7853 North 451 519 34,000  Level Indianapolis Center
Sat 01:40:39 PM 37.7061 -84.7764 North 446 513 34,000  Level Indianapolis Center
Sat 01:41:41 PM 37.8306 -84.7678 North 442 509 34,000  Level Indianapolis Center
Sat 01:42:42 PM 37.9514 -84.7575 North 438 504 34,000  Level Indianapolis Center
Sat 01:43:43 PM 38.0739 -84.7489 North 438 504 34,000  Level Indianapolis Center
Sat 01:44:45 PM 38.2164 -84.7414 North 438 504 34,000  Level Indianapolis Center
Sat 01:45:46 PM 38.3281 -84.7831 344° North 419 482 34,000  Level Indianapolis Center
Sat 01:46:47 PM 38.4361 -84.8264 343° North 408 470 34,000  Level Indianapolis Center
Sat 01:47:49 PM 38.5458 -84.8700 343° North 410 472 34,000  Level Indianapolis Center
Sat 01:48:50 PM 38.6542 -84.9133 343° North 410 472 34,000  Level Indianapolis Center
Sat 01:49:52 PM 38.7636 -84.9583 342° North 410 472 34,000  Level Indianapolis Center
Sat 01:50:53 PM 38.8728 -85.0019 343° North 411 473 34,000 -49 Level Indianapolis Center
Sat 01:51:54 PM 38.9836 -85.0486 342° North 417 480 33,900 -537 Descending Indianapolis Center
Sat 01:52:56 PM 39.0953 -85.0928 343° North 419 482 32,900 -1,122 Descending Indianapolis Center
Sat 01:53:57 PM 39.2214 -85.1447 342° North 411 473 31,600 -1,122 Descending Indianapolis Center
Sat 01:54:59 PM 39.3297 -85.1900 342° North 408 470 30,600 -780 Descending Indianapolis Center
Sat 01:56:00 PM 39.4364 -85.2344 342° North 403 464 30,000 -293 Descending Indianapolis Center
Sat 01:57:02 PM 39.5450 -85.2789 342° North 403 464 30,000  Level Indianapolis Center
Sat 01:58:03 PM 39.6511 -85.3231 342° North 398 458 30,000  Level Indianapolis Center
Sat 01:59:05 PM 39.7536 -85.3658 342° North 387 445 30,000 -488 Level Indianapolis Center
Sat 02:00:06 PM 39.8572 -85.4094 342° North 387 445 29,000 -976 Descending Indianapolis Center
Sat 02:01:08 PM 39.9678 -85.4556 342° North 406 467 28,000 -976 Descending Indianapolis Center
Sat 02:02:09 PM 40.0794 -85.5036 342° North 416 479 27,000 -968 Descending Indianapolis Center
Sat 02:03:12 PM 40.1864 -85.5469 343° North 422 486 26,000 -726 Descending Chicago Center
Sat 02:04:13 PM 40.2964 -85.5947 342° North 418 481 25,500 -829 Descending Chicago Center
Sat 02:05:15 PM 40.4228 -85.6475 342° North 401 461 24,300 -780 Descending Chicago Center
Sat 02:06:16 PM 40.5225 -85.6914 342° North 384 442 23,900 -683 Descending Chicago Center
Sat 02:07:18 PM 40.6200 -85.7358 341° North 373 429 22,900 -871 Descending Chicago Center
Sat 02:08:20 PM 40.7150 -85.7881 337° Northwest 368 423 22,100 -435 Descending Chicago Center
Sat 02:09:22 PM 40.7867 -85.8736 318° Northwest 348 400 22,000 -49 Descending Chicago Center
Sat 02:10:23 PM 40.8597 -85.9614 318° Northwest 353 406 22,000  Level Chicago Center
Sat 02:11:25 PM 40.9319 -86.0472 318° Northwest 351 404 22,000  Level Chicago Center
Sat 02:12:27 PM 41.0175 -86.1503 318° Northwest 347 399 22,000 -290 Level Chicago Center
Sat 02:13:29 PM 41.0878 -86.2356 318° Northwest 345 397 21,400 -878 Descending Chicago Center
Sat 02:14:30 PM 41.1578 -86.3197 318° Northwest 341 392 20,200 -1,415 Descending Chicago Center
Sat 02:15:32 PM 41.2247 -86.4014 317° Northwest 330 380 18,500 -1,452 Descending Chicago Center
Sat 02:16:34 PM 41.2911 -86.4817 318° Northwest 324 373 17,200 -1,258 Descending Chicago Center
Sat 02:17:36 PM 41.3631 -86.5469 326° Northwest 316 364 15,900 -1,210 Descending Chicago Center
Sat 02:18:38 PM 41.4375 -86.6108 327° Northwest 316 364 14,700 -1,073 Descending Chicago Center
Sat 02:19:39 PM 41.5128 -86.6736 328° Northwest 318 366 13,700 -1,122 Descending Chicago Center
Sat 02:20:41 PM 41.5986 -86.7461 328° Northwest 316 364 12,400 -919 Descending Chicago Center
Sat 02:21:43 PM 41.6750 -86.7967 334° Northwest 315 362 11,800 -677 Descending Chicago Center
Sat 02:22:45 PM 41.7608 -86.8081 354° North 311 358 11,000 -387 Descending Chicago Center
Sat 02:23:47 PM 41.8475 -86.8264 351° North 317 365 11,000  Level Chicago Center
Sat 02:24:49 PM 41.9056 -86.9303 307° West 300 345 11,000  Level Chicago Center
Sat 02:25:51 PM 41.9383 -87.0325 293° West 300 345 11,000 -339 Level Chicago Center
Sat 02:26:53 PM 41.9694 -87.1231 295° West 269 310 10,300 -1,073 Descending Chicago Center
Sat 02:27:54 PM 41.9825 -87.2083 282° West 240 276 8,800 -1,463 Descending Chicago Center
Sat 02:28:56 PM 41.9828 -87.2967 270° West 240 276 7,300 -982 Descending Chicago Center
Sat 02:29:44 PM 41.9833 -87.3833 271° West 247 284 7,000 -167 Descending Chicago TRACON
Sat 02:30:44 PM 41.9833 -87.4667 270° West 241 277 7,000 -550 Level Chicago TRACON
Sat 02:31:44 PM 41.9833 -87.5500 270° West 218 251 5,900 -1,150 Descending Chicago TRACON
Sat 02:32:44 PM 41.9833 -87.6333 270° West 190 219 4,700 -1,105 Descending Chicago TRACON
Sat 02:33:38 PM 41.9833 -87.6833 270° West 167 192 3,800 -947 Descending Chicago TRACON
Sat 02:34:38 PM 41.9833 -87.7500 270° West 150 173 2,900 -850 Descending Chicago TRACON
Sat 02:35:38 PM 41.9833 -87.8000 270° West 137 158 2,100 -750 Descending Chicago TRACON
Sat 02:36:38 PM 41.9833 -87.8500 270° West 124 143 1,400 -700 Descending Chicago TRACON
Sat 02:39:00 PM 41.9667 -87.9000 270° West  Level FlightAware Approximate

Login

Don't have an account? Register now (free) for customized features, flight alerts, and more!